sensor_id;sensor_type;location;lat;lon;timestamp;P1;durP1;ratioP1;P2;durP2;ratioP2
20375;SDS011;10347;51.828;6.466;2022-08-21T00:01:30;2.60;;;1.90;;
20375;SDS011;10347;51.828;6.466;2022-08-21T00:03:56;3.97;;;1.67;;
20375;SDS011;10347;51.828;6.466;2022-08-21T00:06:22;3.72;;;2.03;;
20375;SDS011;10347;51.828;6.466;2022-08-21T00:08:51;2.78;;;2.20;;
20375;SDS011;10347;51.828;6.466;2022-08-21T00:11:17;5.20;;;2.50;;
20375;SDS011;10347;51.828;6.466;2022-08-21T00:13:42;1.75;;;1.60;;
20375;SDS011;10347;51.828;6.466;2022-08-21T00:16:08;2.47;;;1.80;;
20375;SDS011;10347;51.828;6.466;2022-08-21T00:18:34;2.55;;;2.00;;
20375;SDS011;10347;51.828;6.466;2022-08-21T00:21:00;2.90;;;2.20;;
20375;SDS011;10347;51.828;6.466;2022-08-21T00:23:26;3.78;;;2.13;;
20375;SDS011;10347;51.828;6.466;2022-08-21T00:25:51;5.22;;;2.38;;
20375;SDS011;10347;51.828;6.466;2022-08-21T00:28:17;3.15;;;2.28;;
20375;SDS011;10347;51.828;6.466;2022-08-21T00:30:43;3.88;;;2.22;;
20375;SDS011;10347;51.828;6.466;2022-08-21T00:33:10;3.17;;;2.38;;
20375;SDS011;10347;51.828;6.466;2022-08-21T00:35:37;4.68;;;2.78;;
20375;SDS011;10347;51.828;6.466;2022-08-21T00:38:05;5.40;;;2.58;;
20375;SDS011;10347;51.828;6.466;2022-08-21T00:40:36;2.53;;;2.05;;
20375;SDS011;10347;51.828;6.466;2022-08-21T00:43:06;5.68;;;2.50;;
20375;SDS011;10347;51.828;6.466;2022-08-21T00:45:34;2.65;;;1.90;;
20375;SDS011;10347;51.828;6.466;2022-08-21T00:48:00;3.38;;;2.10;;
20375;SDS011;10347;51.828;6.466;2022-08-21T00:50:27;2.45;;;2.00;;
20375;SDS011;10347;51.828;6.466;2022-08-21T00:52:59;2.45;;;1.90;;
20375;SDS011;10347;51.828;6.466;2022-08-21T00:55:29;3.88;;;2.15;;
20375;SDS011;10347;51.828;6.466;2022-08-21T00:57:57;2.90;;;2.10;;
20375;SDS011;10347;51.828;6.466;2022-08-21T01:00:26;2.85;;;1.98;;
20375;SDS011;10347;51.828;6.466;2022-08-21T01:02:57;3.88;;;2.13;;
20375;SDS011;10347;51.828;6.466;2022-08-21T01:05:25;3.05;;;2.08;;
20375;SDS011;10347;51.828;6.466;2022-08-21T01:07:51;3.00;;;2.03;;
20375;SDS011;10347;51.828;6.466;2022-08-21T01:10:18;2.85;;;2.40;;
20375;SDS011;10347;51.828;6.466;2022-08-21T01:12:44;4.38;;;2.55;;
20375;SDS011;10347;51.828;6.466;2022-08-21T01:15:10;2.10;;;1.88;;
20375;SDS011;10347;51.828;6.466;2022-08-21T01:17:39;3.05;;;2.08;;
20375;SDS011;10347;51.828;6.466;2022-08-21T01:20:06;3.83;;;2.72;;
20375;SDS011;10347;51.828;6.466;2022-08-21T01:22:34;3.58;;;2.05;;
20375;SDS011;10347;51.828;6.466;2022-08-21T01:25:00;3.42;;;2.50;;
20375;SDS011;10347;51.828;6.466;2022-08-21T01:27:28;2.88;;;2.58;;
20375;SDS011;10347;51.828;6.466;2022-08-21T01:29:56;3.08;;;2.40;;
20375;SDS011;10347;51.828;6.466;2022-08-21T01:32:26;3.75;;;2.50;;
20375;SDS011;10347;51.828;6.466;2022-08-21T01:34:52;2.10;;;1.98;;
20375;SDS011;10347;51.828;6.466;2022-08-21T01:37:19;2.15;;;2.05;;
20375;SDS011;10347;51.828;6.466;2022-08-21T01:39:46;2.20;;;2.03;;
20375;SDS011;10347;51.828;6.466;2022-08-21T01:42:12;2.25;;;2.00;;
20375;SDS011;10347;51.828;6.466;2022-08-21T01:44:38;2.70;;;2.20;;
20375;SDS011;10347;51.828;6.466;2022-08-21T01:47:07;3.83;;;2.42;;
20375;SDS011;10347;51.828;6.466;2022-08-21T01:49:34;2.17;;;2.00;;
20375;SDS011;10347;51.828;6.466;2022-08-21T01:52:00;2.38;;;2.17;;
20375;SDS011;10347;51.828;6.466;2022-08-21T01:54:26;2.38;;;2.17;;
20375;SDS011;10347;51.828;6.466;2022-08-21T01:56:52;2.80;;;2.03;;
20375;SDS011;10347;51.828;6.466;2022-08-21T01:59:20;3.97;;;2.40;;
20375;SDS011;10347;51.828;6.466;2022-08-21T02:01:47;3.75;;;2.60;;
20375;SDS011;10347;51.828;6.466;2022-08-21T02:04:13;2.45;;;2.25;;
20375;SDS011;10347;51.828;6.466;2022-08-21T02:06:39;3.78;;;2.53;;
20375;SDS011;10347;51.828;6.466;2022-08-21T02:09:05;2.50;;;2.30;;
20375;SDS011;10347;51.828;6.466;2022-08-21T02:11:32;2.75;;;2.33;;
20375;SDS011;10347;51.828;6.466;2022-08-21T02:13:58;3.70;;;2.35;;
20375;SDS011;10347;51.828;6.466;2022-08-21T02:16:24;3.13;;;2.53;;
20375;SDS011;10347;51.828;6.466;2022-08-21T02:18:49;3.38;;;2.30;;
20375;SDS011;10347;51.828;6.466;2022-08-21T02:21:15;3.63;;;2.58;;
20375;SDS011;10347;51.828;6.466;2022-08-21T02:23:41;3.10;;;2.45;;
20375;SDS011;10347;51.828;6.466;2022-08-21T02:26:07;2.35;;;1.95;;
20375;SDS011;10347;51.828;6.466;2022-08-21T02:28:34;4.32;;;2.78;;
20375;SDS011;10347;51.828;6.466;2022-08-21T02:31:00;2.88;;;2.67;;
20375;SDS011;10347;51.828;6.466;2022-08-21T02:33:27;2.97;;;2.55;;
20375;SDS011;10347;51.828;6.466;2022-08-21T02:35:53;2.70;;;2.50;;
20375;SDS011;10347;51.828;6.466;2022-08-21T02:38:21;2.58;;;2.28;;
20375;SDS011;10347;51.828;6.466;2022-08-21T02:40:50;2.53;;;2.30;;
20375;SDS011;10347;51.828;6.466;2022-08-21T02:43:16;2.20;;;2.10;;
20375;SDS011;10347;51.828;6.466;2022-08-21T02:45:43;3.60;;;2.25;;
20375;SDS011;10347;51.828;6.466;2022-08-21T02:48:11;2.40;;;2.13;;
20375;SDS011;10347;51.828;6.466;2022-08-21T02:50:42;4.13;;;2.70;;
20375;SDS011;10347;51.828;6.466;2022-08-21T02:53:11;2.67;;;2.20;;
20375;SDS011;10347;51.828;6.466;2022-08-21T02:55:39;3.55;;;2.40;;
20375;SDS011;10347;51.828;6.466;2022-08-21T02:58:05;2.78;;;2.53;;
20375;SDS011;10347;51.828;6.466;2022-08-21T03:00:33;2.63;;;2.33;;
20375;SDS011;10347;51.828;6.466;2022-08-21T03:03:00;4.85;;;3.10;;
20375;SDS011;10347;51.828;6.466;2022-08-21T03:05:27;3.50;;;2.85;;
20375;SDS011;10347;51.828;6.466;2022-08-21T03:07:56;3.08;;;2.78;;
20375;SDS011;10347;51.828;6.466;2022-08-21T03:10:23;2.75;;;2.53;;
20375;SDS011;10347;51.828;6.466;2022-08-21T03:12:49;2.65;;;2.42;;
20375;SDS011;10347;51.828;6.466;2022-08-21T03:15:16;3.30;;;2.78;;
20375;SDS011;10347;51.828;6.466;2022-08-21T03:17:44;3.53;;;2.55;;
20375;SDS011;10347;51.828;6.466;2022-08-21T03:20:11;2.63;;;2.42;;
20375;SDS011;10347;51.828;6.466;2022-08-21T03:22:39;3.53;;;2.08;;
20375;SDS011;10347;51.828;6.466;2022-08-21T03:25:05;3.17;;;2.47;;
20375;SDS011;10347;51.828;6.466;2022-08-21T03:27:31;3.20;;;2.30;;
20375;SDS011;10347;51.828;6.466;2022-08-21T03:29:57;3.00;;;2.20;;
20375;SDS011;10347;51.828;6.466;2022-08-21T03:32:22;3.75;;;2.20;;
20375;SDS011;10347;51.828;6.466;2022-08-21T03:34:48;2.80;;;2.60;;
20375;SDS011;10347;51.828;6.466;2022-08-21T03:37:14;2.97;;;2.28;;
20375;SDS011;10347;51.828;6.466;2022-08-21T03:39:41;4.13;;;2.30;;
20375;SDS011;10347;51.828;6.466;2022-08-21T03:42:07;3.97;;;2.15;;
20375;SDS011;10347;51.828;6.466;2022-08-21T03:44:33;2.60;;;2.33;;
20375;SDS011;10347;51.828;6.466;2022-08-21T03:47:00;2.35;;;2.00;;
20375;SDS011;10347;51.828;6.466;2022-08-21T03:49:26;2.33;;;2.17;;
20375;SDS011;10347;51.828;6.466;2022-08-21T03:51:51;2.13;;;1.90;;
20375;SDS011;10347;51.828;6.466;2022-08-21T03:54:17;2.13;;;2.03;;
20375;SDS011;10347;51.828;6.466;2022-08-21T03:56:43;2.13;;;2.03;;
20375;SDS011;10347;51.828;6.466;2022-08-21T03:59:09;2.25;;;2.00;;
20375;SDS011;10347;51.828;6.466;2022-08-21T04:01:35;2.58;;;2.05;;
20375;SDS011;10347;51.828;6.466;2022-08-21T04:04:01;2.08;;;1.98;;
20375;SDS011;10347;51.828;6.466;2022-08-21T04:06:27;2.65;;;2.00;;
20375;SDS011;10347;51.828;6.466;2022-08-21T04:08:53;2.30;;;2.05;;
20375;SDS011;10347;51.828;6.466;2022-08-21T04:11:19;2.40;;;2.20;;
20375;SDS011;10347;51.828;6.466;2022-08-21T04:13:45;3.17;;;2.13;;
20375;SDS011;10347;51.828;6.466;2022-08-21T04:16:11;3.00;;;2.38;;
20375;SDS011;10347;51.828;6.466;2022-08-21T04:18:37;2.50;;;2.30;;
20375;SDS011;10347;51.828;6.466;2022-08-21T04:21:05;2.45;;;2.13;;
20375;SDS011;10347;51.828;6.466;2022-08-21T04:23:32;2.65;;;2.42;;
20375;SDS011;10347;51.828;6.466;2022-08-21T04:25:59;3.47;;;2.20;;
20375;SDS011;10347;51.828;6.466;2022-08-21T04:28:25;2.75;;;2.50;;
20375;SDS011;10347;51.828;6.466;2022-08-21T04:30:52;2.85;;;2.30;;
20375;SDS011;10347;51.828;6.466;2022-08-21T04:33:19;2.58;;;2.38;;
20375;SDS011;10347;51.828;6.466;2022-08-21T04:35:45;2.75;;;2.53;;
20375;SDS011;10347;51.828;6.466;2022-08-21T04:38:12;2.65;;;2.45;;
20375;SDS011;10347;51.828;6.466;2022-08-21T04:40:37;3.03;;;2.50;;
20375;SDS011;10347;51.828;6.466;2022-08-21T04:43:04;2.67;;;2.47;;
20375;SDS011;10347;51.828;6.466;2022-08-21T04:45:33;3.85;;;2.85;;
20375;SDS011;10347;51.828;6.466;2022-08-21T04:48:01;2.50;;;2.28;;
20375;SDS011;10347;51.828;6.466;2022-08-21T04:50:38;2.72;;;2.40;;
20375;SDS011;10347;51.828;6.466;2022-08-21T04:53:14;2.70;;;2.50;;
20375;SDS011;10347;51.828;6.466;2022-08-21T04:55:43;2.88;;;2.67;;
20375;SDS011;10347;51.828;6.466;2022-08-21T04:58:11;2.75;;;2.50;;
20375;SDS011;10347;51.828;6.466;2022-08-21T05:00:39;2.70;;;2.47;;
20375;SDS011;10347;51.828;6.466;2022-08-21T05:03:06;3.03;;;2.83;;
20375;SDS011;10347;51.828;6.466;2022-08-21T05:05:32;2.70;;;2.50;;
20375;SDS011;10347;51.828;6.466;2022-08-21T05:07:59;2.80;;;2.58;;
20375;SDS011;10347;51.828;6.466;2022-08-21T05:10:27;3.88;;;3.00;;
20375;SDS011;10347;51.828;6.466;2022-08-21T05:12:53;3.65;;;2.90;;
20375;SDS011;10347;51.828;6.466;2022-08-21T05:15:19;3.28;;;2.67;;
20375;SDS011;10347;51.828;6.466;2022-08-21T05:17:45;2.45;;;2.25;;
20375;SDS011;10347;51.828;6.466;2022-08-21T05:20:11;3.70;;;2.30;;
20375;SDS011;10347;51.828;6.466;2022-08-21T05:22:38;2.80;;;2.40;;
20375;SDS011;10347;51.828;6.466;2022-08-21T05:25:05;2.67;;;2.42;;
20375;SDS011;10347;51.828;6.466;2022-08-21T05:27:32;3.40;;;3.08;;
20375;SDS011;10347;51.828;6.466;2022-08-21T05:29:57;3.97;;;2.88;;
20375;SDS011;10347;51.828;6.466;2022-08-21T05:32:23;4.90;;;2.88;;
20375;SDS011;10347;51.828;6.466;2022-08-21T05:34:49;2.65;;;2.45;;
20375;SDS011;10347;51.828;6.466;2022-08-21T05:37:15;4.00;;;2.75;;
20375;SDS011;10347;51.828;6.466;2022-08-21T05:39:41;2.67;;;2.55;;
20375;SDS011;10347;51.828;6.466;2022-08-21T05:42:07;3.25;;;2.55;;
20375;SDS011;10347;51.828;6.466;2022-08-21T05:44:33;2.42;;;2.33;;
20375;SDS011;10347;51.828;6.466;2022-08-21T05:47:08;2.72;;;2.53;;
20375;SDS011;10347;51.828;6.466;2022-08-21T05:49:35;3.28;;;2.97;;
20375;SDS011;10347;51.828;6.466;2022-08-21T05:52:02;2.90;;;2.60;;
20375;SDS011;10347;51.828;6.466;2022-08-21T05:54:28;4.03;;;3.00;;
20375;SDS011;10347;51.828;6.466;2022-08-21T05:56:55;2.83;;;2.55;;
20375;SDS011;10347;51.828;6.466;2022-08-21T05:59:21;3.85;;;3.30;;
20375;SDS011;10347;51.828;6.466;2022-08-21T06:01:47;3.05;;;2.75;;
20375;SDS011;10347;51.828;6.466;2022-08-21T06:04:12;3.75;;;3.45;;
20375;SDS011;10347;51.828;6.466;2022-08-21T06:06:38;7.63;;;4.18;;
20375;SDS011;10347;51.828;6.466;2022-08-21T06:09:04;7.03;;;4.43;;
20375;SDS011;10347;51.828;6.466;2022-08-21T06:11:30;5.82;;;3.75;;
20375;SDS011;10347;51.828;6.466;2022-08-21T06:13:57;4.15;;;3.67;;
20375;SDS011;10347;51.828;6.466;2022-08-21T06:16:23;5.80;;;4.10;;
20375;SDS011;10347;51.828;6.466;2022-08-21T06:18:49;4.80;;;4.00;;
20375;SDS011;10347;51.828;6.466;2022-08-21T06:21:15;6.28;;;4.20;;
20375;SDS011;10347;51.828;6.466;2022-08-21T06:23:40;6.68;;;4.72;;
20375;SDS011;10347;51.828;6.466;2022-08-21T06:26:07;10.30;;;5.55;;
20375;SDS011;10347;51.828;6.466;2022-08-21T06:28:34;5.80;;;4.88;;
20375;SDS011;10347;51.828;6.466;2022-08-21T06:31:00;6.18;;;5.30;;
20375;SDS011;10347;51.828;6.466;2022-08-21T06:33:26;7.75;;;5.53;;
20375;SDS011;10347;51.828;6.466;2022-08-21T06:35:52;10.75;;;5.85;;
20375;SDS011;10347;51.828;6.466;2022-08-21T06:38:17;8.02;;;4.93;;
20375;SDS011;10347;51.828;6.466;2022-08-21T06:40:44;7.32;;;5.50;;
20375;SDS011;10347;51.828;6.466;2022-08-21T06:43:13;9.15;;;5.75;;
20375;SDS011;10347;51.828;6.466;2022-08-21T06:45:40;8.48;;;5.80;;
20375;SDS011;10347;51.828;6.466;2022-08-21T06:48:06;13.65;;;6.35;;
20375;SDS011;10347;51.828;6.466;2022-08-21T06:50:32;8.88;;;6.32;;
20375;SDS011;10347;51.828;6.466;2022-08-21T06:53:03;11.75;;;6.55;;
20375;SDS011;10347;51.828;6.466;2022-08-21T06:55:31;9.85;;;6.50;;
20375;SDS011;10347;51.828;6.466;2022-08-21T06:57:57;9.32;;;6.30;;
20375;SDS011;10347;51.828;6.466;2022-08-21T07:00:22;7.18;;;5.75;;
20375;SDS011;10347;51.828;6.466;2022-08-21T07:02:48;8.98;;;5.90;;
20375;SDS011;10347;51.828;6.466;2022-08-21T07:05:14;8.93;;;6.82;;
20375;SDS011;10347;51.828;6.466;2022-08-21T07:07:39;9.63;;;6.25;;
20375;SDS011;10347;51.828;6.466;2022-08-21T07:10:05;6.78;;;6.05;;
20375;SDS011;10347;51.828;6.466;2022-08-21T07:12:31;10.02;;;6.25;;
20375;SDS011;10347;51.828;6.466;2022-08-21T07:14:57;8.02;;;6.55;;
20375;SDS011;10347;51.828;6.466;2022-08-21T07:17:23;11.70;;;6.85;;
20375;SDS011;10347;51.828;6.466;2022-08-21T07:19:49;9.70;;;6.18;;
20375;SDS011;10347;51.828;6.466;2022-08-21T07:22:16;7.75;;;6.32;;
20375;SDS011;10347;51.828;6.466;2022-08-21T07:24:45;6.70;;;5.38;;
20375;SDS011;10347;51.828;6.466;2022-08-21T07:27:10;7.97;;;5.00;;
20375;SDS011;10347;51.828;6.466;2022-08-21T07:29:36;6.47;;;5.07;;
20375;SDS011;10347;51.828;6.466;2022-08-21T07:32:02;8.02;;;5.43;;
20375;SDS011;10347;51.828;6.466;2022-08-21T07:34:28;9.70;;;5.50;;
20375;SDS011;10347;51.828;6.466;2022-08-21T07:36:53;8.07;;;5.00;;
20375;SDS011;10347;51.828;6.466;2022-08-21T07:39:19;9.23;;;5.15;;
20375;SDS011;10347;51.828;6.466;2022-08-21T07:41:44;11.30;;;5.97;;
20375;SDS011;10347;51.828;6.466;2022-08-21T07:44:10;6.30;;;4.45;;
20375;SDS011;10347;51.828;6.466;2022-08-21T07:46:36;6.88;;;4.30;;
20375;SDS011;10347;51.828;6.466;2022-08-21T07:49:01;7.60;;;4.70;;
20375;SDS011;10347;51.828;6.466;2022-08-21T07:51:27;8.73;;;4.72;;
20375;SDS011;10347;51.828;6.466;2022-08-21T07:53:54;7.40;;;4.30;;
20375;SDS011;10347;51.828;6.466;2022-08-21T07:56:21;8.18;;;4.63;;
20375;SDS011;10347;51.828;6.466;2022-08-21T07:58:47;7.68;;;3.90;;
20375;SDS011;10347;51.828;6.466;2022-08-21T08:01:13;8.05;;;4.38;;
20375;SDS011;10347;51.828;6.466;2022-08-21T08:03:39;5.00;;;3.55;;
20375;SDS011;10347;51.828;6.466;2022-08-21T08:06:06;6.60;;;3.70;;
20375;SDS011;10347;51.828;6.466;2022-08-21T08:08:36;9.57;;;4.20;;
20375;SDS011;10347;51.828;6.466;2022-08-21T08:11:06;5.55;;;3.80;;
20375;SDS011;10347;51.828;6.466;2022-08-21T08:13:37;3.95;;;3.55;;
20375;SDS011;10347;51.828;6.466;2022-08-21T08:16:04;12.00;;;4.03;;
20375;SDS011;10347;51.828;6.466;2022-08-21T08:18:30;7.70;;;3.78;;
20375;SDS011;10347;51.828;6.466;2022-08-21T08:20:55;7.55;;;3.15;;
20375;SDS011;10347;51.828;6.466;2022-08-21T08:23:21;5.97;;;3.22;;
20375;SDS011;10347;51.828;6.466;2022-08-21T08:25:48;5.60;;;2.50;;
20375;SDS011;10347;51.828;6.466;2022-08-21T08:28:13;3.85;;;2.78;;
20375;SDS011;10347;51.828;6.466;2022-08-21T08:30:39;4.22;;;2.85;;
20375;SDS011;10347;51.828;6.466;2022-08-21T08:33:05;7.32;;;3.42;;
20375;SDS011;10347;51.828;6.466;2022-08-21T08:35:31;7.10;;;3.03;;
20375;SDS011;10347;51.828;6.466;2022-08-21T08:37:56;9.70;;;3.55;;
20375;SDS011;10347;51.828;6.466;2022-08-21T08:40:37;6.65;;;2.70;;
20375;SDS011;10347;51.828;6.466;2022-08-21T08:43:09;5.45;;;2.67;;
20375;SDS011;10347;51.828;6.466;2022-08-21T08:45:37;7.18;;;2.90;;
20375;SDS011;10347;51.828;6.466;2022-08-21T08:48:06;6.65;;;2.95;;
20375;SDS011;10347;51.828;6.466;2022-08-21T08:50:49;4.55;;;2.70;;
20375;SDS011;10347;51.828;6.466;2022-08-21T08:53:30;5.55;;;3.05;;
20375;SDS011;10347;51.828;6.466;2022-08-21T08:55:59;7.38;;;2.83;;
20375;SDS011;10347;51.828;6.466;2022-08-21T08:58:37;4.65;;;2.72;;
20375;SDS011;10347;51.828;6.466;2022-08-21T09:01:08;6.63;;;3.40;;
20375;SDS011;10347;51.828;6.466;2022-08-21T09:03:44;6.75;;;2.90;;
20375;SDS011;10347;51.828;6.466;2022-08-21T09:09:22;7.30;;;3.50;;
20375;SDS011;10347;51.828;6.466;2022-08-21T09:12:04;3.92;;;2.55;;
20375;SDS011;10347;51.828;6.466;2022-08-21T09:17:18;7.72;;;3.05;;
20375;SDS011;10347;51.828;6.466;2022-08-21T09:19:59;5.28;;;2.22;;
20375;SDS011;10347;51.828;6.466;2022-08-21T09:25:18;6.95;;;3.03;;
20375;SDS011;10347;51.828;6.466;2022-08-21T09:27:45;7.50;;;3.03;;
20375;SDS011;10347;51.828;6.466;2022-08-21T09:30:11;6.90;;;2.50;;
20375;SDS011;10347;51.828;6.466;2022-08-21T09:32:37;6.03;;;2.70;;
20375;SDS011;10347;51.828;6.466;2022-08-21T09:37:44;6.13;;;3.35;;
20375;SDS011;10347;51.828;6.466;2022-08-21T09:43:04;6.57;;;3.03;;
20375;SDS011;10347;51.828;6.466;2022-08-21T09:45:40;5.32;;;2.67;;
20375;SDS011;10347;51.828;6.466;2022-08-21T09:48:11;7.65;;;2.50;;
20375;SDS011;10347;51.828;6.466;2022-08-21T09:50:39;3.72;;;1.77;;
20375;SDS011;10347;51.828;6.466;2022-08-21T09:53:13;6.47;;;2.45;;
20375;SDS011;10347;51.828;6.466;2022-08-21T09:56:04;7.50;;;2.70;;
20375;SDS011;10347;51.828;6.466;2022-08-21T09:58:59;5.85;;;2.35;;
20375;SDS011;10347;51.828;6.466;2022-08-21T10:01:25;6.72;;;2.15;;
20375;SDS011;10347;51.828;6.466;2022-08-21T10:04:04;3.75;;;1.63;;
20375;SDS011;10347;51.828;6.466;2022-08-21T10:06:32;3.55;;;1.70;;
20375;SDS011;10347;51.828;6.466;2022-08-21T10:09:09;4.72;;;2.10;;
20375;SDS011;10347;51.828;6.466;2022-08-21T10:11:41;7.25;;;2.05;;
20375;SDS011;10347;51.828;6.466;2022-08-21T10:14:17;5.32;;;1.92;;
20375;SDS011;10347;51.828;6.466;2022-08-21T10:17:14;4.03;;;1.60;;
20375;SDS011;10347;51.828;6.466;2022-08-21T10:25:31;3.65;;;1.80;;
20375;SDS011;10347;51.828;6.466;2022-08-21T10:28:07;9.25;;;2.47;;
20375;SDS011;10347;51.828;6.466;2022-08-21T10:31:02;5.43;;;1.80;;
20375;SDS011;10347;51.828;6.466;2022-08-21T10:50:17;6.25;;;1.63;;
20375;SDS011;10347;51.828;6.466;2022-08-21T10:55:55;6.55;;;1.90;;
20375;SDS011;10347;51.828;6.466;2022-08-21T11:01:41;5.05;;;1.60;;
20375;SDS011;10347;51.828;6.466;2022-08-21T11:05:02;4.03;;;1.70;;
20375;SDS011;10347;51.828;6.466;2022-08-21T11:07:18;2.80;;;1.40;;
20375;SDS011;10347;51.828;6.466;2022-08-21T11:09:50;3.78;;;1.30;;
20375;SDS011;10347;51.828;6.466;2022-08-21T11:13:03;2.95;;;1.40;;
20375;SDS011;10347;51.828;6.466;2022-08-21T11:15:17;2.67;;;1.25;;
20375;SDS011;10347;51.828;6.466;2022-08-21T11:18:21;3.88;;;1.55;;
20375;SDS011;10347;51.828;6.466;2022-08-21T11:26:05;4.47;;;1.40;;
20375;SDS011;10347;51.828;6.466;2022-08-21T11:28:45;3.33;;;1.40;;
20375;SDS011;10347;51.828;6.466;2022-08-21T11:31:32;1.88;;;1.30;;
20375;SDS011;10347;51.828;6.466;2022-08-21T11:37:20;3.30;;;1.02;;
20375;SDS011;10347;51.828;6.466;2022-08-21T11:42:56;1.75;;;1.10;;
20375;SDS011;10347;51.828;6.466;2022-08-21T11:48:27;2.03;;;1.20;;
20375;SDS011;10347;51.828;6.466;2022-08-21T11:50:56;3.33;;;1.20;;
20375;SDS011;10347;51.828;6.466;2022-08-21T11:53:26;3.40;;;1.20;;
20375;SDS011;10347;51.828;6.466;2022-08-21T11:58:44;2.65;;;1.30;;
20375;SDS011;10347;51.828;6.466;2022-08-21T12:01:18;1.63;;;1.30;;
20375;SDS011;10347;51.828;6.466;2022-08-21T12:03:57;2.25;;;1.40;;
20375;SDS011;10347;51.828;6.466;2022-08-21T12:06:30;3.55;;;1.20;;
20375;SDS011;10347;51.828;6.466;2022-08-21T12:09:06;2.25;;;1.40;;
20375;SDS011;10347;51.828;6.466;2022-08-21T12:12:13;2.58;;;1.38;;
20375;SDS011;10347;51.828;6.466;2022-08-21T12:15:04;2.70;;;1.52;;
20375;SDS011;10347;51.828;6.466;2022-08-21T12:17:51;2.97;;;1.10;;
20375;SDS011;10347;51.828;6.466;2022-08-21T12:22:54;3.05;;;1.10;;
20375;SDS011;10347;51.828;6.466;2022-08-21T12:25:48;1.70;;;1.05;;
20375;SDS011;10347;51.828;6.466;2022-08-21T12:28:26;3.00;;;1.08;;
20375;SDS011;10347;51.828;6.466;2022-08-21T12:30:55;3.60;;;1.10;;
20375;SDS011;10347;51.828;6.466;2022-08-21T12:36:02;3.28;;;1.00;;
20375;SDS011;10347;51.828;6.466;2022-08-21T12:41:30;1.75;;;1.08;;
20375;SDS011;10347;51.828;6.466;2022-08-21T12:44:01;2.80;;;1.05;;
20375;SDS011;10347;51.828;6.466;2022-08-21T12:46:34;2.92;;;1.40;;
20375;SDS011;10347;51.828;6.466;2022-08-21T12:49:13;1.70;;;1.00;;
20375;SDS011;10347;51.828;6.466;2022-08-21T12:54:46;2.97;;;1.10;;
20375;SDS011;10347;51.828;6.466;2022-08-21T12:57:19;4.00;;;1.10;;
20375;SDS011;10347;51.828;6.466;2022-08-21T12:59:45;1.98;;;0.95;;
20375;SDS011;10347;51.828;6.466;2022-08-21T13:02:17;2.95;;;1.08;;
20375;SDS011;10347;51.828;6.466;2022-08-21T13:04:46;4.13;;;0.88;;
20375;SDS011;10347;51.828;6.466;2022-08-21T13:07:15;1.00;;;0.63;;
20375;SDS011;10347;51.828;6.466;2022-08-21T13:09:48;3.33;;;1.23;;
20375;SDS011;10347;51.828;6.466;2022-08-21T13:12:17;1.77;;;1.10;;
20375;SDS011;10347;51.828;6.466;2022-08-21T13:14:46;1.42;;;1.02;;
20375;SDS011;10347;51.828;6.466;2022-08-21T13:17:14;2.70;;;1.00;;
20375;SDS011;10347;51.828;6.466;2022-08-21T13:19:58;3.17;;;1.10;;
20375;SDS011;10347;51.828;6.466;2022-08-21T13:22:39;1.83;;;0.90;;
20375;SDS011;10347;51.828;6.466;2022-08-21T13:25:09;1.95;;;1.10;;
20375;SDS011;10347;51.828;6.466;2022-08-21T13:27:40;1.88;;;1.00;;
20375;SDS011;10347;51.828;6.466;2022-08-21T13:32:44;1.83;;;1.00;;
20375;SDS011;10347;51.828;6.466;2022-08-21T13:35:15;2.22;;;1.13;;
20375;SDS011;10347;51.828;6.466;2022-08-21T13:37:47;1.98;;;1.10;;
20375;SDS011;10347;51.828;6.466;2022-08-21T13:40:20;1.77;;;1.10;;
20375;SDS011;10347;51.828;6.466;2022-08-21T13:42:51;2.25;;;1.00;;
20375;SDS011;10347;51.828;6.466;2022-08-21T13:45:21;2.58;;;1.15;;
20375;SDS011;10347;51.828;6.466;2022-08-21T13:47:52;3.30;;;1.20;;
20375;SDS011;10347;51.828;6.466;2022-08-21T13:50:20;2.38;;;1.15;;
20375;SDS011;10347;51.828;6.466;2022-08-21T13:52:49;1.30;;;1.15;;
20375;SDS011;10347;51.828;6.466;2022-08-21T13:55:21;2.67;;;1.00;;
20375;SDS011;10347;51.828;6.466;2022-08-21T13:57:47;2.60;;;0.82;;
20375;SDS011;10347;51.828;6.466;2022-08-21T14:00:25;1.85;;;0.90;;
20375;SDS011;10347;51.828;6.466;2022-08-21T14:02:53;2.35;;;0.90;;
20375;SDS011;10347;51.828;6.466;2022-08-21T14:05:29;2.67;;;1.05;;
20375;SDS011;10347;51.828;6.466;2022-08-21T14:07:59;2.63;;;1.08;;
20375;SDS011;10347;51.828;6.466;2022-08-21T14:10:31;1.45;;;0.90;;
20375;SDS011;10347;51.828;6.466;2022-08-21T14:13:02;1.73;;;1.00;;
20375;SDS011;10347;51.828;6.466;2022-08-21T14:15:31;3.50;;;1.20;;
20375;SDS011;10347;51.828;6.466;2022-08-21T14:21:07;1.67;;;0.85;;
20375;SDS011;10347;51.828;6.466;2022-08-21T14:23:34;2.33;;;1.20;;
20375;SDS011;10347;51.828;6.466;2022-08-21T14:26:00;2.55;;;1.05;;
20375;SDS011;10347;51.828;6.466;2022-08-21T14:28:32;1.73;;;0.70;;
20375;SDS011;10347;51.828;6.466;2022-08-21T14:31:17;1.50;;;0.70;;
20375;SDS011;10347;51.828;6.466;2022-08-21T14:33:44;2.30;;;1.10;;
20375;SDS011;10347;51.828;6.466;2022-08-21T14:36:10;2.70;;;1.15;;
20375;SDS011;10347;51.828;6.466;2022-08-21T14:38:37;2.40;;;1.13;;
20375;SDS011;10347;51.828;6.466;2022-08-21T14:41:08;2.33;;;0.98;;
20375;SDS011;10347;51.828;6.466;2022-08-21T14:43:40;1.00;;;0.70;;
20375;SDS011;10347;51.828;6.466;2022-08-21T14:46:07;2.28;;;1.08;;
20375;SDS011;10347;51.828;6.466;2022-08-21T14:48:33;2.63;;;1.10;;
20375;SDS011;10347;51.828;6.466;2022-08-21T14:50:58;1.83;;;0.80;;
20375;SDS011;10347;51.828;6.466;2022-08-21T14:53:24;1.42;;;0.85;;
20375;SDS011;10347;51.828;6.466;2022-08-21T14:55:49;1.27;;;1.00;;
20375;SDS011;10347;51.828;6.466;2022-08-21T14:58:31;1.65;;;0.88;;
20375;SDS011;10347;51.828;6.466;2022-08-21T15:00:58;1.88;;;0.90;;
20375;SDS011;10347;51.828;6.466;2022-08-21T15:03:28;1.15;;;0.95;;
20375;SDS011;10347;51.828;6.466;2022-08-21T15:05:54;1.63;;;0.90;;
20375;SDS011;10347;51.828;6.466;2022-08-21T15:08:19;2.38;;;1.20;;
20375;SDS011;10347;51.828;6.466;2022-08-21T15:10:45;2.55;;;1.02;;
20375;SDS011;10347;51.828;6.466;2022-08-21T15:13:12;2.53;;;1.00;;
20375;SDS011;10347;51.828;6.466;2022-08-21T15:15:39;1.08;;;0.90;;
20375;SDS011;10347;51.828;6.466;2022-08-21T15:18:07;1.67;;;0.88;;
20375;SDS011;10347;51.828;6.466;2022-08-21T15:20:33;1.65;;;0.77;;
20375;SDS011;10347;51.828;6.466;2022-08-21T15:22:59;1.52;;;1.10;;
20375;SDS011;10347;51.828;6.466;2022-08-21T15:25:24;2.60;;;1.00;;
20375;SDS011;10347;51.828;6.466;2022-08-21T15:27:50;3.13;;;0.90;;
20375;SDS011;10347;51.828;6.466;2022-08-21T15:30:16;2.08;;;0.85;;
20375;SDS011;10347;51.828;6.466;2022-08-21T15:32:41;1.92;;;0.90;;
20375;SDS011;10347;51.828;6.466;2022-08-21T15:35:07;1.90;;;1.10;;
20375;SDS011;10347;51.828;6.466;2022-08-21T15:37:33;1.55;;;0.90;;
20375;SDS011;10347;51.828;6.466;2022-08-21T15:39:59;1.75;;;1.00;;
20375;SDS011;10347;51.828;6.466;2022-08-21T15:42:25;2.78;;;1.42;;
20375;SDS011;10347;51.828;6.466;2022-08-21T15:44:54;2.20;;;0.80;;
20375;SDS011;10347;51.828;6.466;2022-08-21T15:47:22;2.92;;;1.25;;
20375;SDS011;10347;51.828;6.466;2022-08-21T15:49:53;5.30;;;1.20;;
20375;SDS011;10347;51.828;6.466;2022-08-21T15:52:19;2.53;;;1.10;;
20375;SDS011;10347;51.828;6.466;2022-08-21T15:54:46;3.70;;;1.13;;
20375;SDS011;10347;51.828;6.466;2022-08-21T15:57:13;3.58;;;1.15;;
20375;SDS011;10347;51.828;6.466;2022-08-21T15:59:42;1.70;;;0.88;;
20375;SDS011;10347;51.828;6.466;2022-08-21T16:02:12;1.25;;;0.90;;
20375;SDS011;10347;51.828;6.466;2022-08-21T16:04:48;2.97;;;0.90;;
20375;SDS011;10347;51.828;6.466;2022-08-21T16:07:13;2.85;;;1.00;;
20375;SDS011;10347;51.828;6.466;2022-08-21T16:09:40;3.85;;;1.23;;
20375;SDS011;10347;51.828;6.466;2022-08-21T16:12:05;6.32;;;1.20;;
20375;SDS011;10347;51.828;6.466;2022-08-21T16:14:32;4.57;;;1.45;;
20375;SDS011;10347;51.828;6.466;2022-08-21T16:17:01;3.33;;;1.17;;